Jarbo, California
Current Conditions -  °F | °C
As of 11:53 AM on Friday 28 Nov 2014 (Local Time) from KOVE Reporting Station
Haze Haze  
Wind Chill: 61°   Ceiling: Unl
Heat Index: 61°   Visibility: 5mi
Dew Point: 47°   Wind: 13mph
Humidity: 60%   Direction: 130°SE
Pressure: 29.97"   Gusts: NA
Location:  39.5324°N, 121.648°W
Report Text: KOVE 281953Z AUTO 13011KT 5SM HZ CLR 16/08 A2997 RMK AO2 PRESFR SLP152 T01610083
Loading
Personal Weather Stations






























Interactive Weather Map New forecast layout! Learn more

10-Day Weather Forecast

Advertisements
Track Severe Weather on mobile